Time;durP1;ratioP1;P1;durP2;ratioP2;P2;SDS_P1;SDS_P2;PMS_P1;PMS_P2;Temp;Humidity;BMP_temperature;BMP_pressure;BME280_temperature;BME280_humidity;BME280_pressure;Samples;Min_cycle;Max_cycle;Signal;HPM_P1;HPM_P2
2023/02/02 00:02:01;;;;;;;;;3.00;2.00;;;;;8.79;63.29;102194.03;6271482;22;45755;-71
2023/02/02 00:07:48;;;;;;;;;5.00;2.50;;;;;8.71;63.53;102189.97;6271674;22;45779;-74
2023/02/02 00:10:13;;;;;;;;;4.50;2.00;;;;;8.70;63.76;102180.44;6271564;22;45571;-76
2023/02/02 00:12:38;;;;;;;;;2.75;2.00;;;;;8.70;63.73;102183.03;6272170;22;45440;-74
2023/02/02 00:15:04;;;;;;;;;7.50;4.50;;;;;8.70;63.88;102188.28;6272026;22;48129;-75
2023/02/02 00:17:29;;;;;;;;;3.50;2.00;;;;;8.67;63.83;102197.09;6244363;22;47289;-74
2023/02/02 00:23:17;;;;;;;;;5.25;3.00;;;;;8.62;64.30;102192.94;6271624;22;45528;-73
2023/02/02 00:25:42;;;;;;;;;3.25;2.75;;;;;8.60;64.16;102195.63;6271718;22;47395;-73
2023/02/02 00:28:08;;;;;;;;;5.00;2.00;;;;;8.57;63.90;102189.66;6272056;22;45551;-72
2023/02/02 00:30:33;;;;;;;;;6.25;3.00;;;;;8.57;64.04;102189.66;6270742;22;45476;-72
2023/02/02 00:32:58;;;;;;;;;7.00;5.75;;;;;8.57;64.32;102184.44;6244947;22;45780;-73
2023/02/02 00:35:24;;;;;;;;;6.50;5.25;;;;;8.53;64.31;102185.47;6244605;22;48743;-71
2023/02/02 00:37:52;;;;;;;;;6.25;4.50;;;;;8.45;64.40;102175.28;6272374;22;45637;-73
2023/02/02 00:40:17;;;;;;;;;6.25;5.00;;;;;8.51;64.25;102184.66;6271660;22;45471;-73
2023/02/02 00:42:49;;;;;;;;;5.00;3.00;;;;;8.49;64.44;102194.31;6271869;22;45853;-73
2023/02/02 00:45:14;;;;;;;;;7.00;5.00;;;;;8.46;64.36;102179.63;6271864;22;46460;-70
2023/02/02 00:47:44;;;;;;;;;3.00;2.00;;;;;8.46;64.59;102177.00;6271637;22;45944;-73
2023/02/02 00:54:14;;;;;;;;;5.00;2.50;;;;;8.37;64.56;102179.94;6269647;22;45531;-73
2023/02/02 00:56:40;;;;;;;;;2.50;2.00;;;;;8.35;64.67;102185.22;6271441;22;47223;-73
2023/02/02 00:59:05;;;;;;;;;4.00;4.00;;;;;8.34;64.88;102178.28;6243971;22;45739;-76
2023/02/02 01:01:31;;;;;;;;;5.25;3.00;;;;;8.38;64.78;102179.03;6271607;22;45679;-76
2023/02/02 01:03:57;;;;;;;;;4.25;3.50;;;;;8.31;65.00;102170.56;6272169;22;45532;-74
2023/02/02 01:06:26;;;;;;;;;2.25;2.00;;;;;8.28;64.85;102161.97;6269910;22;48105;-77
2023/02/02 01:08:52;;;;;;;;;5.00;2.00;;;;;8.31;64.68;102161.91;6271339;22;47406;-75
2023/02/02 01:11:17;;;;;;;;;5.00;5.00;;;;;8.27;65.03;102162.88;6272488;22;45907;-74
2023/02/02 01:13:43;;;;;;;;;2.25;2.25;;;;;8.24;65.11;102163.00;6271447;22;45486;-71
2023/02/02 01:16:12;;;;;;;;;0.25;0.00;;;;;8.19;64.98;102151.88;6271214;22;47103;-74
2023/02/02 01:18:37;;;;;;;;;3.50;2.25;;;;;8.22;65.04;102162.19;6271584;22;46934;-74
2023/02/02 01:21:06;;;;;;;;;3.00;2.00;;;;;8.17;65.20;102148.44;6271723;22;45604;-73
2023/02/02 01:23:32;;;;;;;;;4.00;3.00;;;;;8.21;65.14;102155.25;6271065;22;45603;-73
2023/02/02 01:26:00;;;;;;;;;4.75;2.75;;;;;8.22;65.32;102159.56;6270757;22;47292;-76
2023/02/02 01:28:27;;;;;;;;;3.00;1.75;;;;;8.23;65.15;102159.53;6272108;22;46111;-77
2023/02/02 01:30:52;;;;;;;;;2.75;2.75;;;;;8.15;65.23;102151.09;6271097;22;45759;-73
2023/02/02 01:33:18;;;;;;;;;2.00;1.00;;;;;8.19;65.32;102157.94;6271769;22;45569;-74
2023/02/02 01:39:05;;;;;;;;;4.50;2.50;;;;;8.15;65.41;102164.16;6271328;22;45617;-74
2023/02/02 01:41:32;;;;;;;;;3.00;3.00;;;;;8.11;65.71;102159.09;6270735;22;45527;-76
2023/02/02 01:44:04;;;;;;;;;7.75;5.25;;;;;8.13;65.78;102163.38;6271181;22;45836;-76
2023/02/02 01:46:36;;;;;;;;;3.50;2.00;;;;;8.11;65.34;102169.56;6243178;22;46895;-75
2023/02/02 01:49:18;;;;;;;;;7.00;5.00;;;;;8.11;65.54;102186.06;6271567;22;46005;-77
2023/02/02 01:51:54;;;;;;;;;3.50;2.50;;;;;8.10;65.80;102176.53;6271538;22;45609;-78
2023/02/02 01:54:27;;;;;;;;;2.00;2.00;;;;;8.11;65.79;102187.81;6271019;22;45506;-74
2023/02/02 01:56:59;;;;;;;;;2.75;2.50;;;;;8.06;65.61;102180.16;6271474;22;46658;-76
2023/02/02 01:59:26;;;;;;;;;4.50;2.00;;;;;8.12;65.68;102177.34;6270791;22;46190;-76
2023/02/02 02:01:53;;;;;;;;;6.50;2.75;;;;;8.12;65.78;102168.66;6244300;22;45702;-76
2023/02/02 02:04:20;;;;;;;;;6.00;2.00;;;;;8.10;65.86;102173.91;6272208;22;45691;-76
2023/02/02 02:06:47;;;;;;;;;2.75;2.25;;;;;8.04;65.69;102155.03;6244651;22;46522;-76
2023/02/02 02:09:13;;;;;;;;;4.00;3.50;;;;;8.12;65.71;102179.94;6272357;22;45474;-77
2023/02/02 02:11:39;;;;;;;;;9.00;3.00;;;;;8.11;65.70;102172.16;6244959;22;45562;-75
2023/02/02 02:17:10;;;;;;;;;3.00;2.00;;;;;8.11;65.99;102191.28;6272372;22;45637;-77
2023/02/02 02:29:08;;;;;;;;;3.00;3.00;;;;;8.14;65.90;102201.63;6272205;22;45444;-76
2023/02/02 02:31:59;;;;;;;;;3.50;2.00;;;;;8.11;65.63;102196.50;6271975;22;46030;-75
2023/02/02 02:37:56;;;;;;;;;4.00;2.00;;;;;8.02;65.31;102197.69;6272738;22;45637;-75
2023/02/02 02:40:58;;;;;;;;;3.25;1.75;;;;;8.00;66.13;102203.84;6272558;22;46482;-74
2023/02/02 02:43:30;;;;;;;;;2.00;2.00;;;;;7.96;66.17;102194.44;6203368;22;47039;-72
2023/02/02 02:45:56;;;;;;;;;2.50;1.25;;;;;7.90;66.01;102192.88;6272167;22;45491;-75
2023/02/02 02:48:21;;;;;;;;;2.00;2.00;;;;;7.94;66.19;102198.84;6272376;22;45499;-70
2023/02/02 02:54:12;;;;;;;;;4.00;2.00;;;;;7.95;66.13;102192.72;6268916;22;45998;-73
2023/02/02 02:56:58;;;;;;;;;3.00;3.00;;;;;7.93;66.23;102197.16;6271679;22;45749;-74
2023/02/02 02:59:49;;;;;;;;;4.25;2.00;;;;;7.91;66.20;102189.38;6273070;22;45673;-76
2023/02/02 03:02:25;;;;;;;;;2.00;1.00;;;;;7.97;66.12;102194.41;6271753;22;46404;-76
2023/02/02 03:05:17;;;;;;;;;2.75;2.00;;;;;7.98;66.11;102192.63;6244691;22;46149;-74
2023/02/02 03:08:11;;;;;;;;;2.50;1.75;;;;;7.97;65.96;102206.59;6242450;22;46097;-76
2023/02/02 03:10:39;;;;;;;;;5.75;2.00;;;;;7.93;66.07;102184.97;6272020;22;45601;-74
2023/02/02 03:13:10;;;;;;;;;2.25;1.75;;;;;7.95;66.24;102190.97;6272624;22;45502;-75
2023/02/02 03:15:35;;;;;;;;;5.00;1.25;;;;;7.94;66.07;102191.88;6272491;22;46114;-74
2023/02/02 03:18:01;;;;;;;;;5.00;2.50;;;;;7.85;66.02;102173.94;6272515;22;45697;-73
2023/02/02 03:20:26;;;;;;;;;5.50;2.00;;;;;7.92;66.07;102204.13;6271658;22;45711;-77
2023/02/02 03:22:52;;;;;;;;;4.00;2.00;;;;;7.86;66.08;102190.44;6272611;22;46254;-72
2023/02/02 03:25:17;;;;;;;;;2.00;2.00;;;;;7.84;66.21;102187.88;6272529;22;45619;-76
2023/02/02 03:27:43;;;;;;;;;2.00;0.75;;;;;7.86;66.25;102188.69;6271914;22;45699;-73
2023/02/02 03:30:12;;;;;;;;;2.00;1.50;;;;;7.85;66.14;102176.53;6272966;22;45419;-72
2023/02/02 03:32:38;;;;;;;;;3.50;2.75;;;;;7.87;66.24;102187.78;6271464;22;47526;-72
2023/02/02 03:35:03;;;;;;;;;6.00;2.75;;;;;7.75;66.07;102166.47;6272781;22;46179;-75
2023/02/02 03:37:29;;;;;;;;;1.25;1.00;;;;;7.83;66.32;102187.94;6271821;22;45526;-71
2023/02/02 03:39:54;;;;;;;;;3.00;1.75;;;;;7.88;66.25;102197.28;6245385;22;45517;-75
2023/02/02 03:42:19;;;;;;;;;4.00;3.25;;;;;7.87;66.16;102206.06;6272268;22;46460;-77
2023/02/02 03:44:45;;;;;;;;;2.00;2.00;;;;;7.88;66.24;102207.72;6271912;22;46038;-76
2023/02/02 03:47:10;;;;;;;;;2.50;2.00;;;;;7.89;66.31;102206.84;6271458;22;45610;-76
2023/02/02 03:49:35;;;;;;;;;2.50;2.00;;;;;7.87;66.31;102197.38;6272402;22;45829;-75
2023/02/02 03:55:22;;;;;;;;;2.00;1.75;;;;;7.98;66.04;102216.13;6265684;22;46020;-76
2023/02/02 03:57:49;;;;;;;;;4.00;2.75;;;;;7.99;66.09;102223.03;6271955;22;45654;-74
2023/02/02 04:00:14;;;;;;;;;3.00;2.00;;;;;8.00;65.90;102219.50;6272370;22;45277;-75
2023/02/02 04:02:40;;;;;;;;;3.00;2.25;;;;;8.00;66.19;102219.50;6271195;22;47450;-74
2023/02/02 04:05:06;;;;;;;;;2.00;1.00;;;;;8.00;65.89;102206.47;6271926;22;45539;-73
2023/02/02 04:10:53;;;;;;;;;4.25;2.50;;;;;8.04;66.19;102222.91;6272025;22;45563;-75
2023/02/02 04:13:19;;;;;;;;;3.75;2.00;;;;;8.01;66.21;102210.78;6271578;22;46331;-73
2023/02/02 04:15:44;;;;;;;;;2.00;2.00;;;;;8.00;66.18;102212.53;6271380;22;47291;-76
2023/02/02 04:18:09;;;;;;;;;4.50;2.75;;;;;8.01;65.99;102216.88;6271613;22;45530;-76
2023/02/02 04:20:35;;;;;;;;;4.50;2.00;;;;;7.99;66.17;102216.03;6270066;22;45641;-76
2023/02/02 04:23:00;;;;;;;;;1.25;1.25;;;;;8.02;66.26;102225.53;6272350;22;45634;-76
2023/02/02 04:25:25;;;;;;;;;3.25;2.00;;;;;8.04;66.32;102226.34;6271647;22;47036;-75
2023/02/02 04:27:51;;;;;;;;;4.75;2.00;;;;;8.06;66.09;102227.13;6271828;22;45683;-76
2023/02/02 04:30:18;;;;;;;;;7.50;2.75;;;;;8.02;66.00;102204.66;6275507;22;45550;-75
2023/02/02 04:32:44;;;;;;;;;2.50;2.00;;;;;8.05;65.94;102209.75;6272600;22;45473;-76
2023/02/02 04:35:10;;;;;;;;;4.50;2.25;;;;;8.10;66.04;102218.28;6272038;22;45516;-77
2023/02/02 04:40:57;;;;;;;;;5.25;1.50;;;;;7.98;65.86;102201.31;6272052;22;45589;-74
2023/02/02 04:43:22;;;;;;;;;1.50;1.25;;;;;8.06;66.08;102214.09;6272138;22;46157;-75
2023/02/02 04:45:54;;;;;;;;;2.50;2.00;;;;;8.00;66.20;102209.94;6272175;22;46244;-76
2023/02/02 04:48:19;;;;;;;;;3.00;2.00;;;;;8.02;66.25;102220.31;6271737;22;45769;-76
2023/02/02 04:50:45;;;;;;;;;2.75;1.00;;;;;7.95;66.36;102209.25;6272631;22;45658;-75
2023/02/02 04:56:32;;;;;;;;;5.00;2.00;;;;;8.02;66.42;102231.63;6265661;22;45576;-74
2023/02/02 04:58:57;;;;;;;;;2.00;1.75;;;;;8.01;66.36;102227.31;6272421;22;45594;-72
2023/02/02 05:01:23;;;;;;;;;3.50;2.00;;;;;8.05;66.31;102227.19;6272288;22;45643;-74
2023/02/02 05:03:49;;;;;;;;;3.00;2.00;;;;;8.05;66.49;102225.44;6272292;22;45527;-76
2023/02/02 05:06:16;;;;;;;;;4.75;1.75;;;;;7.90;66.43;102199.88;6272230;22;46080;-72
2023/02/02 05:08:42;;;;;;;;;2.00;2.00;;;;;8.11;66.54;102237.41;6271399;22;45736;-76
2023/02/02 05:11:13;;;;;;;;;6.50;3.25;;;;;8.11;66.33;102227.81;6271559;22;45752;-73
2023/02/02 05:13:39;;;;;;;;;1.75;1.75;;;;;8.12;66.27;102242.59;6271111;22;46817;-75
2023/02/02 05:16:05;;;;;;;;;2.00;1.75;;;;;8.06;66.43;102239.31;6271847;22;46152;-75
2023/02/02 05:18:30;;;;;;;;;1.00;0.00;;;;;8.06;66.52;102240.19;6271554;22;45815;-72
2023/02/02 05:21:00;;;;;;;;;2.00;1.00;;;;;8.06;66.45;102237.56;6272142;22;45540;-73
2023/02/02 05:26:47;;;;;;;;;5.00;3.00;;;;;8.09;66.38;102250.53;6271426;22;46219;-72
2023/02/02 05:29:12;;;;;;;;;5.00;1.25;;;;;8.04;66.56;102235.94;6271514;22;45515;-74
2023/02/02 05:31:38;;;;;;;;;2.00;2.00;;;;;8.11;66.70;102242.63;6271228;22;45499;-73
2023/02/02 05:34:05;;;;;;;;;2.00;2.00;;;;;8.14;66.77;102250.38;6271442;22;45496;-71
2023/02/02 05:36:31;;;;;;;;;4.00;2.00;;;;;8.13;66.82;102240.84;6270383;22;46450;-73
2023/02/02 05:38:56;;;;;;;;;3.50;2.00;;;;;8.12;66.61;102237.38;6271629;22;45547;-73
2023/02/02 05:41:22;;;;;;;;;2.00;1.75;;;;;8.13;66.90;102236.47;6271218;22;45421;-74
2023/02/02 05:43:47;;;;;;;;;1.75;1.00;;;;;8.15;66.65;102239.03;6271016;22;46142;-74
2023/02/02 05:46:13;;;;;;;;;9.75;3.25;;;;;8.20;66.68;102247.56;6272213;22;46982;-74
2023/02/02 05:48:38;;;;;;;;;2.00;1.50;;;;;8.23;66.66;102250.91;6272807;22;45492;-75
2023/02/02 05:51:24;;;;;;;;;4.75;2.50;;;;;8.27;66.83;102254.25;6272349;22;45509;-76
2023/02/02 05:57:11;;;;;;;;;5.00;1.00;;;;;8.29;66.83;102248.09;6269241;22;45560;-74
2023/02/02 05:59:36;;;;;;;;;1.25;1.25;;;;;8.27;66.45;102244.66;6272514;22;45620;-75
2023/02/02 06:02:01;;;;;;;;;2.50;1.75;;;;;8.29;66.79;102255.06;6271274;22;45440;-74
2023/02/02 06:04:28;;;;;;;;;1.00;0.00;;;;;8.28;66.91;102256.81;6271892;22;46676;-73
2023/02/02 06:06:53;;;;;;;;;6.75;3.00;;;;;8.28;66.61;102262.03;6272693;22;46000;-75
2023/02/02 06:09:18;;;;;;;;;3.25;2.00;;;;;8.12;67.04;102233.91;6272095;22;45396;-76
2023/02/02 06:11:46;;;;;;;;;1.75;1.75;;;;;8.29;66.93;102268.13;6272253;22;45594;-75
2023/02/02 06:14:12;;;;;;;;;4.00;2.00;;;;;8.23;66.98;102248.28;6272423;22;45999;-74
2023/02/02 06:16:37;;;;;;;;;5.00;1.00;;;;;8.19;67.00;102238.00;6271657;22;46308;-77
2023/02/02 06:19:02;;;;;;;;;5.75;3.00;;;;;8.27;67.03;102252.50;6271996;22;45580;-76
2023/02/02 06:21:30;;;;;;;;;2.50;2.00;;;;;8.31;66.94;102261.94;6271951;22;45580;-76
2023/02/02 06:27:17;;;;;;;;;3.50;2.00;;;;;8.40;66.88;102266.88;6272124;22;46159;-76
2023/02/02 06:29:42;;;;;;;;;7.00;3.00;;;;;8.45;67.03;102264.09;6272019;22;45632;-76
2023/02/02 06:32:07;;;;;;;;;2.25;1.50;;;;;8.49;66.77;102281.34;6271658;22;45604;-71
2023/02/02 06:34:33;;;;;;;;;4.50;2.00;;;;;8.52;66.84;102283.88;6270514;22;46172;-73
2023/02/02 06:36:58;;;;;;;;;1.75;1.75;;;;;8.56;66.73;102282.84;6271018;22;46327;-74
2023/02/02 06:42:45;;;;;;;;;4.00;2.00;;;;;8.64;66.68;102290.38;6271942;22;45739;-72
2023/02/02 06:45:10;;;;;;;;;1.25;0.00;;;;;8.65;66.48;102279.03;6272858;22;46405;-74
2023/02/02 06:47:36;;;;;;;;;1.00;1.00;;;;;8.65;66.50;102289.47;6273028;22;45551;-72
2023/02/02 06:50:02;;;;;;;;;5.00;2.75;;;;;8.66;66.67;102280.75;6271954;22;45444;-73
2023/02/02 06:52:27;;;;;;;;;4.50;2.00;;;;;8.70;66.53;102277.97;6272811;22;45768;-73
2023/02/02 06:54:52;;;;;;;;;2.00;1.25;;;;;8.72;66.43;102289.22;6272298;22;45628;-74
2023/02/02 06:57:18;;;;;;;;;3.25;2.00;;;;;8.70;66.29;102285.78;6271330;22;46800;-73
2023/02/02 06:59:43;;;;;;;;;4.00;2.00;;;;;8.71;66.65;102289.28;6272127;22;45590;-74
2023/02/02 07:02:10;;;;;;;;;2.00;2.00;;;;;8.69;66.38;102284.09;6272293;22;45671;-75
2023/02/02 07:04:36;;;;;;;;;2.00;1.00;;;;;8.66;66.45;102281.59;6272189;22;45508;-72
2023/02/02 07:07:01;;;;;;;;;1.75;0.50;;;;;8.69;66.33;102285.88;6272197;22;46586;-73
2023/02/02 07:12:48;;;;;;;;;2.75;2.00;;;;;8.76;66.30;102287.34;6272644;22;45611;-74
2023/02/02 07:15:13;;;;;;;;;1.75;1.00;;;;;8.77;66.44;102284.69;6243250;22;46556;-73
2023/02/02 07:17:39;;;;;;;;;2.25;2.00;;;;;8.81;66.17;102283.66;6244664;22;46373;-74
2023/02/02 07:20:05;;;;;;;;;3.50;1.50;;;;;8.78;66.08;102277.69;6272494;22;45428;-73
2023/02/02 07:22:30;;;;;;;;;2.75;1.25;;;;;8.84;66.14;102291.38;6271384;22;45705;-73
2023/02/02 07:28:17;;;;;;;;;5.25;2.75;;;;;8.91;66.11;102294.59;6271493;22;45747;-73
2023/02/02 07:30:42;;;;;;;;;6.00;3.50;;;;;8.93;65.87;102294.56;6272041;22;45578;-72
2023/02/02 07:33:08;;;;;;;;;0.25;0.00;;;;;8.92;65.64;102293.69;6271390;22;45471;-72
2023/02/02 07:35:33;;;;;;;;;2.00;2.00;;;;;8.95;65.46;102298.84;6271682;22;47233;-73
2023/02/02 07:37:59;;;;;;;;;2.50;1.25;;;;;8.91;65.67;102299.84;6272083;22;46088;-72
2023/02/02 07:40:25;;;;;;;;;1.75;1.75;;;;;8.89;65.44;102300.81;6272808;22;45550;-73
2023/02/02 07:42:51;;;;;;;;;2.00;1.75;;;;;8.88;65.48;102294.72;6245091;22;45876;-73
2023/02/02 07:45:17;;;;;;;;;2.00;1.25;;;;;8.91;65.38;102305.06;6272311;22;45498;-74
2023/02/02 07:47:43;;;;;;;;;6.25;2.75;;;;;8.96;65.36;102297.06;6271390;22;46304;-74
2023/02/02 07:50:08;;;;;;;;;3.50;1.00;;;;;8.96;65.38;102294.47;6271211;22;45407;-72
2023/02/02 07:52:34;;;;;;;;;3.00;2.75;;;;;8.98;65.46;102306.56;6271855;22;45625;-74
2023/02/02 07:58:21;;;;;;;;;1.00;1.00;;;;;8.94;65.21;102306.72;6265784;22;45790;-74
2023/02/02 08:00:46;;;;;;;;;4.00;1.50;;;;;8.93;65.43;102297.16;6271464;22;45511;-74
2023/02/02 08:03:12;;;;;;;;;2.25;2.25;;;;;8.94;65.49;102296.28;6272314;22;45704;-74
2023/02/02 08:05:37;;;;;;;;;2.25;2.00;;;;;8.92;65.38;102304.16;6271862;22;45515;-73
2023/02/02 08:08:03;;;;;;;;;8.00;3.00;;;;;8.96;65.58;102310.97;6271420;22;45365;-75
2023/02/02 08:13:53;;;;;;;;;2.00;2.00;;;;;8.96;65.23;102307.53;6271630;22;45741;-73
2023/02/02 08:16:19;;;;;;;;;1.00;0.00;;;;;8.99;65.47;102307.41;6271185;22;46870;-73
2023/02/02 08:18:45;;;;;;;;;4.00;2.00;;;;;9.00;65.37;102319.56;6271488;22;47181;-74
2023/02/02 08:21:11;;;;;;;;;4.00;2.00;;;;;9.00;65.41;102317.81;6272241;22;45645;-74
2023/02/02 08:23:38;;;;;;;;;6.25;5.00;;;;;8.99;65.10;102323.94;6271751;22;45512;-74
2023/02/02 08:26:25;;;;;;;;;2.25;2.00;;;;;8.93;65.40;102305.88;6271418;22;47554;-74
2023/02/02 08:28:53;;;;;;;;;6.50;5.00;;;;;9.06;65.31;102322.81;6271387;22;47495;-74
2023/02/02 08:31:22;;;;;;;;;2.00;1.75;;;;;9.05;65.12;102323.72;6270752;22;45554;-73
2023/02/02 08:33:48;;;;;;;;;4.00;2.00;;;;;9.09;65.15;102322.69;6271597;22;45535;-73
2023/02/02 08:36:16;;;;;;;;;3.00;3.00;;;;;9.04;65.35;102324.63;6272037;22;46229;-74
2023/02/02 08:38:41;;;;;;;;;2.25;1.75;;;;;9.10;65.38;102339.22;6271354;22;46302;-73
2023/02/02 08:41:09;;;;;;;;;3.00;2.00;;;;;9.07;65.23;102336.75;6271054;22;45442;-73
2023/02/02 08:43:34;;;;;;;;;4.50;3.00;;;;;9.06;65.81;102342.88;6271588;22;45531;-74
2023/02/02 08:46:00;;;;;;;;;3.00;2.00;;;;;9.05;65.44;102347.25;6271179;22;46472;-75
2023/02/02 08:48:26;;;;;;;;;5.50;1.25;;;;;9.06;65.54;102343.72;6270950;22;45730;-73
2023/02/02 08:50:56;;;;;;;;;2.25;2.00;;;;;9.09;65.28;102346.22;6271028;22;45503;-75
2023/02/02 08:53:22;;;;;;;;;1.25;1.00;;;;;9.11;65.33;102346.16;6271045;22;45381;-75
2023/02/02 08:59:09;;;;;;;;;3.00;2.00;;;;;9.09;65.34;102348.84;6266925;22;45732;-75
2023/02/02 09:01:35;;;;;;;;;2.75;2.75;;;;;9.14;65.42;102353.88;6271447;22;45415;-74
2023/02/02 09:04:12;;;;;;;;;4.00;2.00;;;;;9.13;65.16;102347.81;6271298;22;45688;-75
2023/02/02 09:06:39;;;;;;;;;4.50;3.00;;;;;9.15;65.08;102360.84;6270842;22;46529;-73
2023/02/02 09:09:07;;;;;;;;;2.00;1.75;;;;;9.09;65.12;102343.59;6271086;22;46056;-74
2023/02/02 09:11:34;;;;;;;;;1.50;1.50;;;;;9.17;65.35;102353.78;6271120;22;45583;-73
2023/02/02 09:14:01;;;;;;;;;2.50;2.00;;;;;9.15;65.23;102355.59;6271208;22;45628;-74
2023/02/02 09:16:28;;;;;;;;;4.00;2.25;;;;;9.11;65.05;102339.19;6271166;22;46774;-74
2023/02/02 09:18:55;;;;;;;;;3.50;3.00;;;;;9.21;65.13;102350.16;6243462;22;46157;-72
2023/02/02 09:21:20;;;;;;;;;3.00;2.00;;;;;9.18;65.09;102353.72;6272810;22;45455;-77
2023/02/02 09:23:48;;;;;;;;;4.50;3.00;;;;;9.14;64.87;102349.50;6274365;22;45539;-74
2023/02/02 09:26:21;;;;;;;;;3.50;2.00;;;;;9.15;64.95;102355.59;6270934;22;46653;-74
2023/02/02 09:28:50;;;;;;;;;2.75;2.00;;;;;9.15;64.75;102358.22;6270933;22;46221;-73
2023/02/02 09:31:16;;;;;;;;;4.50;2.50;;;;;9.22;65.03;102381.47;6270685;22;45841;-72
2023/02/02 09:33:42;;;;;;;;;6.00;3.00;;;;;9.22;65.07;102385.84;6271768;22;45536;-72
2023/02/02 09:36:15;;;;;;;;;2.25;2.00;;;;;9.24;64.76;102397.94;6270885;22;46394;-74
2023/02/02 09:38:42;;;;;;;;;2.75;2.00;;;;;9.24;64.79;102403.19;6270739;22;46152;-72
2023/02/02 09:45:00;;;;;;;;;2.00;2.00;;;;;9.32;64.83;102415.97;6271396;22;45465;-75
2023/02/02 09:47:48;;;;;;;;;1.00;0.00;;;;;9.37;64.90;102414.06;6271407;22;45735;-73
2023/02/02 09:50:28;;;;;;;;;2.25;2.00;;;;;9.41;64.52;102422.63;6271600;22;45886;-74
2023/02/02 09:53:00;;;;;;;;;1.00;1.00;;;;;9.44;64.54;102422.53;6270740;22;45598;-74
2023/02/02 09:55:35;;;;;;;;;2.50;2.00;;;;;9.38;64.71;102396.59;6271687;22;45692;-73
2023/02/02 09:58:12;;;;;;;;;5.00;2.00;;;;;9.49;64.53;102412.75;6271122;22;46299;-74
2023/02/02 10:01:07;;;;;;;;;2.75;1.25;;;;;9.52;64.63;102408.25;6270553;22;47332;-74
2023/02/02 10:03:49;;;;;;;;;4.75;2.00;;;;;9.52;64.58;102410.84;6146418;23;45737;-74
2023/02/02 10:06:25;;;;;;;;;3.50;1.00;;;;;9.59;64.48;102411.47;6147266;23;45648;-75
2023/02/02 10:09:01;;;;;;;;;2.25;2.00;;;;;9.62;64.44;102419.19;6146326;23;46780;-72
2023/02/02 10:11:39;;;;;;;;;3.00;3.00;;;;;9.66;64.29;102413.78;6146185;23;46123;-72
2023/02/02 10:14:17;;;;;;;;;4.00;3.00;;;;;9.72;64.33;102419.72;6146178;23;45636;-71
2023/02/02 10:16:45;;;;;;;;;6.75;3.00;;;;;9.76;64.18;102413.47;6146942;23;45521;-74
2023/02/02 10:19:13;;;;;;;;;2.75;2.00;;;;;9.78;63.99;102424.69;6145980;23;46523;-72
2023/02/02 10:21:49;;;;;;;;;2.75;2.25;;;;;9.79;64.03;102411.56;6120936;23;47206;-75
2023/02/02 10:27:38;;;;;;;;;2.25;2.00;;;;;9.84;63.73;102411.38;6147089;23;45832;-75
2023/02/02 10:30:18;;;;;;;;;4.75;2.00;;;;;9.84;63.79;102414.84;6147561;23;45642;-73
2023/02/02 10:32:51;;;;;;;;;3.00;2.00;;;;;9.86;63.49;102410.41;6148461;23;47044;-73
2023/02/02 10:35:41;;;;;;;;;3.00;3.00;;;;;9.93;63.69;102424.94;6148431;23;45633;-76
2023/02/02 10:38:21;;;;;;;;;3.00;2.75;;;;;9.98;63.48;102428.28;6148548;23;45691;-73
2023/02/02 10:44:16;;;;;;;;;4.00;3.00;;;;;10.06;63.02;102426.19;6272283;22;46090;-74
2023/02/02 10:46:50;;;;;;;;;3.00;1.00;;;;;10.11;63.16;102433.84;6271918;22;45551;-72
2023/02/02 10:49:25;;;;;;;;;7.00;2.00;;;;;10.17;63.12;102433.66;6273052;22;45593;-72
2023/02/02 10:52:08;;;;;;;;;2.00;1.00;;;;;10.24;62.58;102440.34;6271820;22;46384;-74
2023/02/02 10:54:56;;;;;;;;;1.00;1.00;;;;;10.29;62.52;102440.16;6271791;22;47032;-73
2023/02/02 10:57:36;;;;;;;;;2.00;1.00;;;;;10.32;62.42;102437.41;6272030;22;45509;-74
2023/02/02 11:00:19;;;;;;;;;2.00;1.00;;;;;10.37;61.98;102435.44;6271806;22;45660;-75
2023/02/02 11:02:49;;;;;;;;;2.00;1.00;;;;;10.42;61.94;102446.59;6272302;22;46233;-74
2023/02/02 11:08:58;;;;;;;;;1.00;1.00;;;;;10.48;61.46;102441.97;6272358;22;45413;-74
2023/02/02 11:11:33;;;;;;;;;1.00;1.00;;;;;10.52;61.27;102443.56;6147956;22;45631;-72
2023/02/02 11:14:07;;;;;;;;;2.00;1.00;;;;;10.57;61.30;102445.13;6147852;23;46412;-72
2023/02/02 11:16:34;;;;;;;;;1.25;1.00;;;;;10.62;61.24;102420.44;6146299;23;46593;-74
2023/02/02 11:18:59;;;;;;;;;1.00;0.50;;;;;10.65;61.17;102422.06;6147266;23;45837;-72
2023/02/02 11:21:27;;;;;;;;;1.00;0.25;;;;;10.66;60.84;102435.09;6147027;23;45573;-71
2023/02/02 11:23:53;;;;;;;;;2.00;1.00;;;;;10.70;60.70;102422.72;6147383;23;46593;-72
2023/02/02 11:26:18;;;;;;;;;1.00;1.00;;;;;10.73;60.69;102423.47;6147648;23;45624;-72
2023/02/02 11:28:47;;;;;;;;;1.00;1.00;;;;;10.80;60.32;102421.41;6147342;23;45683;-72
2023/02/02 11:31:31;;;;;;;;;1.00;0.00;;;;;10.80;60.17;102422.25;6147301;23;45823;-73
2023/02/02 11:34:15;;;;;;;;;2.00;1.00;;;;;10.85;60.11;102416.84;6147064;23;46403;-72
2023/02/02 11:37:01;;;;;;;;;1.00;1.00;;;;;10.88;59.99;102406.22;6147922;23;46283;-73
2023/02/02 11:39:26;;;;;;;;;2.00;1.00;;;;;10.88;59.82;102425.41;6148076;23;45667;-73
2023/02/02 11:41:59;;;;;;;;;2.00;0.50;;;;;10.89;59.76;102419.25;6147307;23;45513;-71
2023/02/02 11:44:27;;;;;;;;;1.50;1.00;;;;;10.89;59.66;102402.66;6147686;23;46901;-72
2023/02/02 11:46:52;;;;;;;;;1.50;1.00;;;;;10.91;59.61;102411.31;6155968;22;46495;-72
2023/02/02 11:49:21;;;;;;;;;2.00;1.00;;;;;10.93;59.51;102405.09;6272867;22;45527;-73
2023/02/02 11:52:00;;;;;;;;;1.25;0.75;;;;;10.97;59.54;102392.69;6271862;22;45557;-74
2023/02/02 11:54:31;;;;;;;;;0.75;0.75;;;;;10.87;59.32;102381.75;6271435;22;47278;-72
2023/02/02 11:57:00;;;;;;;;;1.50;1.00;;;;;10.91;59.58;102385.94;6272196;22;45829;-73
2023/02/02 11:59:29;;;;;;;;;0.00;0.00;;;;;11.00;59.44;102386.47;6271120;22;45797;-72
2023/02/02 12:02:43;;;;;;;;;1.00;1.00;;;;;10.99;59.30;102369.88;6272086;22;45714;-72
2023/02/02 12:05:14;;;;;;;;;1.00;1.00;;;;;11.17;58.98;102395.28;6147023;23;45612;-72
2023/02/02 12:07:42;;;;;;;;;1.00;0.75;;;;;11.21;58.93;102398.63;6147518;23;46197;-72
2023/02/02 12:13:34;;;;;;;;;2.00;1.00;;;;;11.31;58.54;102384.16;6147582;23;45619;-73
2023/02/02 12:16:39;;;;;;;;;0.00;0.00;;;;;11.39;58.55;102383.81;6146926;23;46551;-72
2023/02/02 12:19:33;;;;;;;;;1.25;1.00;;;;;11.40;58.36;102388.97;6147683;23;45980;-74
2023/02/02 12:22:26;;;;;;;;;0.50;0.25;;;;;11.47;58.08;102379.06;6147450;23;45593;-72
2023/02/02 12:24:56;;;;;;;;;1.25;1.00;;;;;11.50;58.08;102377.13;6147304;23;45519;-71
2023/02/02 12:30:54;;;;;;;;;1.75;1.00;;;;;11.55;57.61;102382.19;6147552;23;45702;-73
2023/02/02 12:33:31;;;;;;;;;0.50;0.50;;;;;11.55;57.61;102382.19;6148099;23;45970;-73
2023/02/02 12:36:06;;;;;;;;;1.00;0.00;;;;;11.50;57.71;102371.88;6147214;23;45542;-72
2023/02/02 12:38:54;;;;;;;;;1.50;0.75;;;;;11.51;57.66;102373.59;6147389;23;46766;-74
2023/02/02 12:41:50;;;;;;;;;1.50;1.00;;;;;11.56;57.59;102383.88;6195496;22;46454;-73
2023/02/02 12:44:30;;;;;;;;;1.25;0.75;;;;;11.52;57.83;102377.94;6243998;22;45833;-72
2023/02/02 12:47:23;;;;;;;;;2.00;1.50;;;;;11.52;58.08;102372.66;6271390;22;45707;-72
2023/02/02 12:50:24;;;;;;;;;1.25;0.00;;;;;11.52;58.05;102363.94;6271360;22;46420;-72
2023/02/02 12:53:06;;;;;;;;;2.00;1.25;;;;;11.42;58.09;102371.41;6145991;23;46300;-73
2023/02/02 12:56:05;;;;;;;;;1.00;1.00;;;;;11.43;58.14;102374.88;6147162;23;45587;-72
2023/02/02 12:58:54;;;;;;;;;2.00;0.00;;;;;11.40;58.27;102346.13;6154650;23;45507;-73
2023/02/02 13:01:29;;;;;;;;;1.25;1.00;;;;;11.40;57.97;102367.13;6177346;23;46420;-71
2023/02/02 13:03:58;;;;;;;;;3.00;2.00;;;;;11.38;58.24;102369.00;6176568;23;47077;-71
2023/02/02 13:07:00;;;;;;;;;3.25;1.25;;;;;11.38;58.29;102361.97;6176804;23;45654;-73
2023/02/02 13:09:41;;;;;;;;;1.25;1.00;;;;;11.38;58.42;102364.59;6177518;23;45838;-70
2023/02/02 13:12:10;;;;;;;;;1.00;1.00;;;;;11.36;58.47;102361.19;6176377;23;47155;-71
2023/02/02 13:14:43;;;;;;;;;0.50;0.50;;;;;11.32;58.53;102347.38;6177287;23;46537;-72
2023/02/02 13:17:15;;;;;;;;;1.00;0.00;;;;;11.32;58.73;102336.88;6176262;23;45644;-72
2023/02/02 13:19:45;;;;;;;;;2.00;1.00;;;;;11.38;58.96;102355.88;6177722;23;45656;-72
2023/02/02 13:22:23;;;;;;;;;1.00;1.00;;;;;11.34;58.97;102350.75;6177082;23;46990;-73
2023/02/02 13:24:51;;;;;;;;;1.00;1.00;;;;;11.36;59.11;102348.06;6177438;23;46022;-73